New Braunfels, TX (78132)

7:41 PM CDT on June 27, 2017 (GMT -0500)
River Road nr 1st Crossing | | Change Station

Elev 672 ft 29.75 °N, 98.15 °W | Updated 1 minute ago

Rain
Rain
75.9 °F
Feels Like 76 °F
N
3.0
Wind Variable Wind from NNE
Gusts 5.0 mph

Today
High -- | Low -- °F
--% Chance of Precip.
Yesterday
High -- | Low -- °F
Precip. -- in
Pressure 29.93 in
Visibility 10.0 miles
Clouds Few 2600 ft
Scattered Clouds 8000 ft
Overcast 11000 ft
Heat Index 76 °F
Dew Point 73 °F
Humidity 90%
Rainfall 1.29 in
Snow Depth Not available.
6:34 AM 8:37 PM
Waxing Crescent, 20% visible
METAR KBAZ 272351Z 03003KT 10SM -RA FEW026 SCT080 OVC110 24/22 A2995 RMK AO2 WSHFT 2240 RAB01 SLP133 P0039 60044 T02390217 10328 20228 58001
Pressure 29.93 in
Visibility 10.0 miles
Clouds Few 2600 ft
Scattered Clouds 8000 ft
Overcast 11000 ft
Heat Index 76 °F
Dew Point 73 °F
Humidity 90%
Rainfall 1.29 in
Snow Depth Not available.
6:34 AM 8:37 PM
Waxing Crescent, 20% visible
METAR KBAZ 272351Z 03003KT 10SM -RA FEW026 SCT080 OVC110 24/22 A2995 RMK AO2 WSHFT 2240 RAB01 SLP133 P0039 60044 T02390217 10328 20228 58001

Get Severe Weather Alerts

Thanks for signing up!

Be on the lookout for a verification email in your inbox.

You'll start receiving the daily forecast at 6 AM.

×

10-Day Weather Forecast

Almanac

Astronomy

Jun. 27, 2017 Rise Set
Actual Time
Civil Twilight
Nautical Twilight
Astronomical Twilight
Moon
Length of Visible Light
Length of Day
Tomorrow will be .
, % of the Moon is Illuminated

Today's Extremes

State Highs State Lows

Community

WunderPhotos

Category 6

Welcome to Category 6. This is the collective home for Weather Underground's featured writeups by Dr. Jeff Masters (right), Bob Henson (left), Chris Burt, and other regular contributors.

Nearby

Air Quality

  Air Quality AQ Index Pollutant
Not available.

Snow Depth

Station Depth Elevation

Earthquake Activity

City Distance Mag. Time & Date
Minimum magnitude displayed is 2.5.

Coastal Water Temperatures

Place Temperature

Stations

Nearby Weather Stations

Station Location Temp. Windchill Dew Point Humidity Wind Precip. Elev Updated Type
                   

Watches & Warnings

There are currently no watches in effect.